sensor_id;sensor_type;location;lat;lon;timestamp;P1;durP1;ratioP1;P2;durP2;ratioP2
45764;SDS011;31474;45.332;10.230;2023-04-01T00:01:25;19.10;;;12.35;;
45764;SDS011;31474;45.332;10.230;2023-04-01T00:03:51;17.85;;;12.73;;
45764;SDS011;31474;45.332;10.230;2023-04-01T00:06:18;19.45;;;12.50;;
45764;SDS011;31474;45.332;10.230;2023-04-01T00:08:44;19.42;;;13.18;;
45764;SDS011;31474;45.332;10.230;2023-04-01T00:11:11;22.80;;;13.07;;
45764;SDS011;31474;45.332;10.230;2023-04-01T00:13:37;18.10;;;12.98;;
45764;SDS011;31474;45.332;10.230;2023-04-01T00:16:03;18.30;;;13.02;;
45764;SDS011;31474;45.332;10.230;2023-04-01T00:18:29;15.68;;;11.98;;
45764;SDS011;31474;45.332;10.230;2023-04-01T00:20:55;15.82;;;11.38;;
45764;SDS011;31474;45.332;10.230;2023-04-01T00:23:21;16.52;;;11.05;;
45764;SDS011;31474;45.332;10.230;2023-04-01T00:25:47;17.45;;;12.20;;
45764;SDS011;31474;45.332;10.230;2023-04-01T00:28:17;24.58;;;11.75;;
45764;SDS011;31474;45.332;10.230;2023-04-01T00:30:44;21.75;;;12.50;;
45764;SDS011;31474;45.332;10.230;2023-04-01T00:33:10;15.98;;;11.50;;
45764;SDS011;31474;45.332;10.230;2023-04-01T00:35:36;17.98;;;13.15;;
45764;SDS011;31474;45.332;10.230;2023-04-01T00:38:02;17.92;;;12.52;;
45764;SDS011;31474;45.332;10.230;2023-04-01T00:40:30;16.52;;;12.00;;
45764;SDS011;31474;45.332;10.230;2023-04-01T00:42:57;14.65;;;11.85;;
45764;SDS011;31474;45.332;10.230;2023-04-01T00:47:52;20.35;;;11.30;;
45764;SDS011;31474;45.332;10.230;2023-04-01T00:50:18;13.55;;;11.35;;
45764;SDS011;31474;45.332;10.230;2023-04-01T00:52:44;16.02;;;12.20;;
45764;SDS011;31474;45.332;10.230;2023-04-01T00:55:11;17.00;;;12.05;;
45764;SDS011;31474;45.332;10.230;2023-04-01T00:57:39;17.02;;;11.30;;
45764;SDS011;31474;45.332;10.230;2023-04-01T01:00:09;15.18;;;11.10;;
45764;SDS011;31474;45.332;10.230;2023-04-01T01:02:37;15.77;;;10.80;;
45764;SDS011;31474;45.332;10.230;2023-04-01T01:05:04;12.98;;;10.50;;
45764;SDS011;31474;45.332;10.230;2023-04-01T01:07:34;12.90;;;10.23;;
45764;SDS011;31474;45.332;10.230;2023-04-01T01:12:41;14.80;;;9.57;;
45764;SDS011;31474;45.332;10.230;2023-04-01T01:23:54;13.95;;;10.15;;
45764;SDS011;31474;45.332;10.230;2023-04-01T01:34:22;14.82;;;10.50;;
45764;SDS011;31474;45.332;10.230;2023-04-01T01:37:08;16.88;;;11.50;;
45764;SDS011;31474;45.332;10.230;2023-04-01T01:39:39;14.70;;;11.10;;
45764;SDS011;31474;45.332;10.230;2023-04-01T01:42:07;13.68;;;10.20;;
45764;SDS011;31474;45.332;10.230;2023-04-01T01:44:35;13.93;;;11.13;;
45764;SDS011;31474;45.332;10.230;2023-04-01T01:47:03;14.13;;;11.20;;
45764;SDS011;31474;45.332;10.230;2023-04-01T01:49:29;17.40;;;12.02;;
45764;SDS011;31474;45.332;10.230;2023-04-01T01:51:57;17.15;;;11.60;;
45764;SDS011;31474;45.332;10.230;2023-04-01T01:54:23;17.15;;;11.15;;
45764;SDS011;31474;45.332;10.230;2023-04-01T01:56:49;13.57;;;11.18;;
45764;SDS011;31474;45.332;10.230;2023-04-01T01:59:20;14.55;;;10.98;;
45764;SDS011;31474;45.332;10.230;2023-04-01T02:01:50;17.05;;;12.32;;
45764;SDS011;31474;45.332;10.230;2023-04-01T02:04:18;15.10;;;11.75;;
45764;SDS011;31474;45.332;10.230;2023-04-01T02:06:50;15.27;;;11.15;;
45764;SDS011;31474;45.332;10.230;2023-04-01T02:09:20;13.43;;;10.60;;
45764;SDS011;31474;45.332;10.230;2023-04-01T02:11:47;13.32;;;10.25;;
45764;SDS011;31474;45.332;10.230;2023-04-01T02:14:26;12.32;;;10.52;;
45764;SDS011;31474;45.332;10.230;2023-04-01T02:17:03;13.80;;;11.32;;
45764;SDS011;31474;45.332;10.230;2023-04-01T02:19:37;14.52;;;11.13;;
45764;SDS011;31474;45.332;10.230;2023-04-01T02:22:06;12.25;;;10.52;;
45764;SDS011;31474;45.332;10.230;2023-04-01T02:24:36;15.13;;;11.57;;
45764;SDS011;31474;45.332;10.230;2023-04-01T02:27:04;15.45;;;10.50;;
45764;SDS011;31474;45.332;10.230;2023-04-01T02:29:30;15.63;;;10.77;;
45764;SDS011;31474;45.332;10.230;2023-04-01T02:31:56;14.68;;;11.20;;
45764;SDS011;31474;45.332;10.230;2023-04-01T02:34:23;14.07;;;10.65;;
45764;SDS011;31474;45.332;10.230;2023-04-01T02:36:50;12.48;;;10.57;;
45764;SDS011;31474;45.332;10.230;2023-04-01T02:39:16;14.02;;;11.48;;
45764;SDS011;31474;45.332;10.230;2023-04-01T02:41:43;11.52;;;10.27;;
45764;SDS011;31474;45.332;10.230;2023-04-01T02:44:10;15.38;;;11.73;;
45764;SDS011;31474;45.332;10.230;2023-04-01T02:46:37;17.45;;;10.70;;
45764;SDS011;31474;45.332;10.230;2023-04-01T02:49:04;15.90;;;11.50;;
45764;SDS011;31474;45.332;10.230;2023-04-01T02:51:30;14.65;;;11.43;;
45764;SDS011;31474;45.332;10.230;2023-04-01T02:53:56;12.48;;;10.30;;
45764;SDS011;31474;45.332;10.230;2023-04-01T02:56:21;14.10;;;10.07;;
45764;SDS011;31474;45.332;10.230;2023-04-01T02:58:47;15.45;;;10.70;;
45764;SDS011;31474;45.332;10.230;2023-04-01T03:01:13;14.98;;;11.48;;
45764;SDS011;31474;45.332;10.230;2023-04-01T03:03:39;14.00;;;10.95;;
45764;SDS011;31474;45.332;10.230;2023-04-01T03:06:09;17.80;;;10.20;;
45764;SDS011;31474;45.332;10.230;2023-04-01T03:08:36;10.93;;;9.05;;
45764;SDS011;31474;45.332;10.230;2023-04-01T03:11:02;13.48;;;9.57;;
45764;SDS011;31474;45.332;10.230;2023-04-01T03:13:28;11.82;;;9.35;;
45764;SDS011;31474;45.332;10.230;2023-04-01T03:15:53;13.25;;;9.30;;
45764;SDS011;31474;45.332;10.230;2023-04-01T03:18:19;12.30;;;9.18;;
45764;SDS011;31474;45.332;10.230;2023-04-01T03:20:45;12.30;;;8.80;;
45764;SDS011;31474;45.332;10.230;2023-04-01T03:23:11;14.18;;;10.45;;
45764;SDS011;31474;45.332;10.230;2023-04-01T03:25:37;13.48;;;10.25;;
45764;SDS011;31474;45.332;10.230;2023-04-01T03:28:03;11.38;;;9.20;;
45764;SDS011;31474;45.332;10.230;2023-04-01T03:30:28;15.38;;;11.23;;
45764;SDS011;31474;45.332;10.230;2023-04-01T03:32:58;17.58;;;11.73;;
45764;SDS011;31474;45.332;10.230;2023-04-01T03:35:25;15.95;;;12.10;;
45764;SDS011;31474;45.332;10.230;2023-04-01T03:37:52;14.13;;;11.27;;
45764;SDS011;31474;45.332;10.230;2023-04-01T03:40:18;12.23;;;10.30;;
45764;SDS011;31474;45.332;10.230;2023-04-01T03:42:44;14.93;;;10.63;;
45764;SDS011;31474;45.332;10.230;2023-04-01T03:45:10;12.73;;;10.05;;
45764;SDS011;31474;45.332;10.230;2023-04-01T03:47:39;11.90;;;9.55;;
45764;SDS011;31474;45.332;10.230;2023-04-01T03:50:05;12.85;;;9.65;;
45764;SDS011;31474;45.332;10.230;2023-04-01T03:52:32;14.75;;;10.80;;
45764;SDS011;31474;45.332;10.230;2023-04-01T03:54:58;15.32;;;10.13;;
45764;SDS011;31474;45.332;10.230;2023-04-01T03:57:25;11.80;;;9.48;;
45764;SDS011;31474;45.332;10.230;2023-04-01T03:59:51;13.35;;;9.57;;
45764;SDS011;31474;45.332;10.230;2023-04-01T04:02:16;14.15;;;10.88;;
45764;SDS011;31474;45.332;10.230;2023-04-01T04:04:42;15.05;;;11.70;;
45764;SDS011;31474;45.332;10.230;2023-04-01T04:07:08;12.88;;;10.02;;
45764;SDS011;31474;45.332;10.230;2023-04-01T04:09:34;13.32;;;10.75;;
45764;SDS011;31474;45.332;10.230;2023-04-01T04:12:00;16.45;;;10.82;;
45764;SDS011;31474;45.332;10.230;2023-04-01T04:14:25;12.82;;;10.02;;
45764;SDS011;31474;45.332;10.230;2023-04-01T04:16:51;13.07;;;9.70;;
45764;SDS011;31474;45.332;10.230;2023-04-01T04:19:17;16.00;;;11.32;;
45764;SDS011;31474;45.332;10.230;2023-04-01T04:21:43;12.00;;;9.60;;
45764;SDS011;31474;45.332;10.230;2023-04-01T04:24:09;13.02;;;10.38;;
45764;SDS011;31474;45.332;10.230;2023-04-01T04:26:35;13.32;;;9.65;;
45764;SDS011;31474;45.332;10.230;2023-04-01T04:29:00;14.38;;;10.00;;
45764;SDS011;31474;45.332;10.230;2023-04-01T04:31:26;13.15;;;9.65;;
45764;SDS011;31474;45.332;10.230;2023-04-01T04:33:52;11.93;;;9.10;;
45764;SDS011;31474;45.332;10.230;2023-04-01T04:36:19;13.90;;;9.77;;
45764;SDS011;31474;45.332;10.230;2023-04-01T04:38:45;12.60;;;9.23;;
45764;SDS011;31474;45.332;10.230;2023-04-01T04:41:12;13.02;;;9.50;;
45764;SDS011;31474;45.332;10.230;2023-04-01T04:43:39;11.70;;;8.65;;
45764;SDS011;31474;45.332;10.230;2023-04-01T04:46:09;11.98;;;8.80;;
45764;SDS011;31474;45.332;10.230;2023-04-01T04:48:35;14.15;;;9.90;;
45764;SDS011;31474;45.332;10.230;2023-04-01T04:51:02;12.77;;;8.95;;
45764;SDS011;31474;45.332;10.230;2023-04-01T04:53:28;14.45;;;9.23;;
45764;SDS011;31474;45.332;10.230;2023-04-01T04:55:54;13.73;;;10.10;;
45764;SDS011;31474;45.332;10.230;2023-04-01T04:58:20;15.57;;;9.18;;
45764;SDS011;31474;45.332;10.230;2023-04-01T05:00:46;12.45;;;9.00;;
45764;SDS011;31474;45.332;10.230;2023-04-01T05:03:12;13.40;;;9.60;;
45764;SDS011;31474;45.332;10.230;2023-04-01T05:05:39;12.48;;;9.20;;
45764;SDS011;31474;45.332;10.230;2023-04-01T05:08:05;12.38;;;9.50;;
45764;SDS011;31474;45.332;10.230;2023-04-01T05:10:31;10.13;;;8.65;;
45764;SDS011;31474;45.332;10.230;2023-04-01T05:12:57;11.98;;;9.48;;
45764;SDS011;31474;45.332;10.230;2023-04-01T05:15:23;12.38;;;9.27;;
45764;SDS011;31474;45.332;10.230;2023-04-01T05:17:49;14.60;;;8.38;;
45764;SDS011;31474;45.332;10.230;2023-04-01T05:20:15;12.48;;;9.15;;
45764;SDS011;31474;45.332;10.230;2023-04-01T05:22:41;11.00;;;8.60;;
45764;SDS011;31474;45.332;10.230;2023-04-01T05:25:07;13.15;;;10.57;;
45764;SDS011;31474;45.332;10.230;2023-04-01T05:27:33;18.20;;;11.00;;
45764;SDS011;31474;45.332;10.230;2023-04-01T05:29:59;15.13;;;9.82;;
45764;SDS011;31474;45.332;10.230;2023-04-01T05:32:25;16.48;;;9.93;;
45764;SDS011;31474;45.332;10.230;2023-04-01T05:34:51;17.70;;;10.95;;
45764;SDS011;31474;45.332;10.230;2023-04-01T05:37:17;16.08;;;10.45;;
45764;SDS011;31474;45.332;10.230;2023-04-01T05:39:43;13.40;;;9.68;;
45764;SDS011;31474;45.332;10.230;2023-04-01T05:42:08;16.20;;;9.90;;
45764;SDS011;31474;45.332;10.230;2023-04-01T05:44:34;12.88;;;9.98;;
45764;SDS011;31474;45.332;10.230;2023-04-01T05:47:01;17.70;;;9.60;;
45764;SDS011;31474;45.332;10.230;2023-04-01T05:49:27;16.60;;;9.52;;
45764;SDS011;31474;45.332;10.230;2023-04-01T05:51:53;14.60;;;10.82;;
45764;SDS011;31474;45.332;10.230;2023-04-01T05:54:19;16.52;;;9.93;;
45764;SDS011;31474;45.332;10.230;2023-04-01T05:56:45;13.02;;;9.63;;
45764;SDS011;31474;45.332;10.230;2023-04-01T05:59:11;15.27;;;10.13;;
45764;SDS011;31474;45.332;10.230;2023-04-01T06:01:37;14.25;;;10.25;;
45764;SDS011;31474;45.332;10.230;2023-04-01T06:04:03;16.73;;;10.35;;
45764;SDS011;31474;45.332;10.230;2023-04-01T06:06:29;17.33;;;10.48;;
45764;SDS011;31474;45.332;10.230;2023-04-01T06:09:07;17.27;;;11.13;;
45764;SDS011;31474;45.332;10.230;2023-04-01T06:14:49;12.77;;;9.82;;
45764;SDS011;31474;45.332;10.230;2023-04-01T06:17:30;11.30;;;8.90;;
45764;SDS011;31474;45.332;10.230;2023-04-01T06:20:44;11.63;;;9.65;;
45764;SDS011;31474;45.332;10.230;2023-04-01T06:31:06;11.27;;;7.85;;
45764;SDS011;31474;45.332;10.230;2023-04-01T06:39:32;10.55;;;7.28;;
45764;SDS011;31474;45.332;10.230;2023-04-01T06:45:27;10.18;;;6.80;;
45764;SDS011;31474;45.332;10.230;2023-04-01T06:56:31;8.77;;;6.43;;
45764;SDS011;31474;45.332;10.230;2023-04-01T06:58:59;7.90;;;6.90;;
45764;SDS011;31474;45.332;10.230;2023-04-01T07:02:01;8.25;;;7.00;;
45764;SDS011;31474;45.332;10.230;2023-04-01T07:04:44;9.73;;;7.20;;
45764;SDS011;31474;45.332;10.230;2023-04-01T07:07:21;10.05;;;7.30;;
45764;SDS011;31474;45.332;10.230;2023-04-01T07:10:03;11.10;;;7.43;;
45764;SDS011;31474;45.332;10.230;2023-04-01T07:12:40;9.88;;;6.95;;
45764;SDS011;31474;45.332;10.230;2023-04-01T07:17:45;11.60;;;9.00;;
45764;SDS011;31474;45.332;10.230;2023-04-01T07:22:48;11.57;;;9.00;;
45764;SDS011;31474;45.332;10.230;2023-04-01T07:25:24;10.07;;;7.55;;
45764;SDS011;31474;45.332;10.230;2023-04-01T07:28:15;8.63;;;6.65;;
45764;SDS011;31474;45.332;10.230;2023-04-01T07:33:15;8.43;;;5.43;;
45764;SDS011;31474;45.332;10.230;2023-04-01T07:35:51;7.78;;;5.40;;
45764;SDS011;31474;45.332;10.230;2023-04-01T07:38:49;6.05;;;4.55;;
45764;SDS011;31474;45.332;10.230;2023-04-01T07:41:32;5.78;;;4.60;;
45764;SDS011;31474;45.332;10.230;2023-04-01T07:44:08;5.53;;;4.43;;
45764;SDS011;31474;45.332;10.230;2023-04-01T07:54:51;5.50;;;3.70;;
45764;SDS011;31474;45.332;10.230;2023-04-01T08:08:57;9.07;;;8.18;;
45764;SDS011;31474;45.332;10.230;2023-04-01T08:12:02;6.35;;;4.45;;
45764;SDS011;31474;45.332;10.230;2023-04-01T08:14:52;10.40;;;5.53;;
45764;SDS011;31474;45.332;10.230;2023-04-01T08:17:43;5.25;;;3.97;;
45764;SDS011;31474;45.332;10.230;2023-04-01T08:20:32;7.10;;;4.07;;
45764;SDS011;31474;45.332;10.230;2023-04-01T08:23:19;7.43;;;4.63;;
45764;SDS011;31474;45.332;10.230;2023-04-01T08:26:08;8.68;;;4.93;;
45764;SDS011;31474;45.332;10.230;2023-04-01T08:28:57;9.05;;;5.05;;
45764;SDS011;31474;45.332;10.230;2023-04-01T08:31:37;4.93;;;4.07;;
45764;SDS011;31474;45.332;10.230;2023-04-01T08:34:15;5.97;;;4.63;;
45764;SDS011;31474;45.332;10.230;2023-04-01T08:36:49;5.60;;;4.32;;
45764;SDS011;31474;45.332;10.230;2023-04-01T08:52:22;10.75;;;4.47;;
45764;SDS011;31474;45.332;10.230;2023-04-01T08:55:27;7.55;;;5.38;;
45764;SDS011;31474;45.332;10.230;2023-04-01T09:12:18;7.13;;;5.03;;
45764;SDS011;31474;45.332;10.230;2023-04-01T10:25:22;9.68;;;7.95;;
45764;SDS011;31474;45.332;10.230;2023-04-01T10:28:35;16.25;;;10.98;;
45764;SDS011;31474;45.332;10.230;2023-04-01T10:30:57;9.75;;;6.82;;
45764;SDS011;31474;45.332;10.230;2023-04-01T10:36:33;9.70;;;7.15;;
45764;SDS011;31474;45.332;10.230;2023-04-01T10:53:12;7.97;;;4.53;;
45764;SDS011;31474;45.332;10.230;2023-04-01T11:15:28;6.03;;;3.95;;
45764;SDS011;31474;45.332;10.230;2023-04-01T11:24:27;10.00;;;3.67;;
45764;SDS011;31474;45.332;10.230;2023-04-01T11:29:39;3.72;;;3.03;;
45764;SDS011;31474;45.332;10.230;2023-04-01T11:38:11;3.65;;;2.70;;
45764;SDS011;31474;45.332;10.230;2023-04-01T11:41:01;3.28;;;2.38;;
45764;SDS011;31474;45.332;10.230;2023-04-01T11:44:02;7.65;;;2.88;;
45764;SDS011;31474;45.332;10.230;2023-04-01T11:46:56;6.95;;;2.35;;
45764;SDS011;31474;45.332;10.230;2023-04-01T12:08:49;3.42;;;1.23;;
45764;SDS011;31474;45.332;10.230;2023-04-01T12:11:41;2.22;;;1.00;;
45764;SDS011;31474;45.332;10.230;2023-04-01T12:14:21;1.77;;;1.15;;
45764;SDS011;31474;45.332;10.230;2023-04-01T12:20:22;7.63;;;1.52;;
45764;SDS011;31474;45.332;10.230;2023-04-01T12:26:00;4.47;;;0.85;;
45764;SDS011;31474;45.332;10.230;2023-04-01T12:45:11;1.27;;;0.57;;
45764;SDS011;31474;45.332;10.230;2023-04-01T12:55:44;5.57;;;0.85;;
45764;SDS011;31474;45.332;10.230;2023-04-01T13:01:09;1.05;;;0.70;;
45764;SDS011;31474;45.332;10.230;2023-04-01T13:06:32;1.65;;;0.60;;
45764;SDS011;31474;45.332;10.230;2023-04-01T13:09:14;1.05;;;0.55;;
45764;SDS011;31474;45.332;10.230;2023-04-01T13:21:12;0.82;;;0.52;;
45764;SDS011;31474;45.332;10.230;2023-04-01T13:23:56;0.55;;;0.40;;
45764;SDS011;31474;45.332;10.230;2023-04-01T13:26:58;3.45;;;0.82;;
45764;SDS011;31474;45.332;10.230;2023-04-01T13:29:43;0.57;;;0.40;;
45764;SDS011;31474;45.332;10.230;2023-04-01T13:32:17;2.08;;;1.13;;
45764;SDS011;31474;45.332;10.230;2023-04-01T13:34:52;6.85;;;4.05;;
45764;SDS011;31474;45.332;10.230;2023-04-01T13:37:54;12.60;;;7.40;;
45764;SDS011;31474;45.332;10.230;2023-04-01T13:40:47;6.20;;;1.50;;
45764;SDS011;31474;45.332;10.230;2023-04-01T13:43:42;3.50;;;2.30;;
45764;SDS011;31474;45.332;10.230;2023-04-01T13:48:54;1.55;;;0.70;;
45764;SDS011;31474;45.332;10.230;2023-04-01T13:51:54;1.98;;;1.00;;
45764;SDS011;31474;45.332;10.230;2023-04-01T13:55:01;1.35;;;0.90;;
45764;SDS011;31474;45.332;10.230;2023-04-01T14:00:54;1.00;;;0.30;;
45764;SDS011;31474;45.332;10.230;2023-04-01T14:12:08;1.17;;;0.35;;
45764;SDS011;31474;45.332;10.230;2023-04-01T14:20:32;2.95;;;0.20;;
45764;SDS011;31474;45.332;10.230;2023-04-01T14:31:42;2.25;;;0.52;;
45764;SDS011;31474;45.332;10.230;2023-04-01T14:34:29;1.33;;;0.70;;
45764;SDS011;31474;45.332;10.230;2023-04-01T14:51:19;0.32;;;0.25;;
45764;SDS011;31474;45.332;10.230;2023-04-01T14:54:30;0.70;;;0.20;;
45764;SDS011;31474;45.332;10.230;2023-04-01T14:59:28;0.20;;;0.10;;
45764;SDS011;31474;45.332;10.230;2023-04-01T15:07:20;0.35;;;0.20;;
45764;SDS011;31474;45.332;10.230;2023-04-01T15:13:37;1.10;;;0.55;;
45764;SDS011;31474;45.332;10.230;2023-04-01T15:35:52;3.70;;;1.10;;
45764;SDS011;31474;45.332;10.230;2023-04-01T15:41:16;3.00;;;0.98;;
45764;SDS011;31474;45.332;10.230;2023-04-01T15:43:45;3.30;;;0.63;;
45764;SDS011;31474;45.332;10.230;2023-04-01T16:13:38;1.77;;;0.38;;
45764;SDS011;31474;45.332;10.230;2023-04-01T16:19:09;1.85;;;0.50;;
45764;SDS011;31474;45.332;10.230;2023-04-01T16:30:01;2.05;;;0.60;;
45764;SDS011;31474;45.332;10.230;2023-04-01T16:32:51;1.88;;;0.38;;
45764;SDS011;31474;45.332;10.230;2023-04-01T16:43:48;0.50;;;0.30;;
45764;SDS011;31474;45.332;10.230;2023-04-01T16:49:02;2.35;;;0.73;;
45764;SDS011;31474;45.332;10.230;2023-04-01T16:54:29;4.82;;;2.22;;
45764;SDS011;31474;45.332;10.230;2023-04-01T17:02:12;10.13;;;4.13;;
45764;SDS011;31474;45.332;10.230;2023-04-01T17:25:58;2.88;;;0.65;;
45764;SDS011;31474;45.332;10.230;2023-04-01T17:31:32;2.50;;;0.30;;
45764;SDS011;31474;45.332;10.230;2023-04-01T17:34:17;1.30;;;0.40;;
45764;SDS011;31474;45.332;10.230;2023-04-01T17:39:35;0.60;;;0.30;;
45764;SDS011;31474;45.332;10.230;2023-04-01T17:47:41;1.40;;;0.77;;
45764;SDS011;31474;45.332;10.230;2023-04-01T17:58:29;1.33;;;0.57;;
45764;SDS011;31474;45.332;10.230;2023-04-01T18:18:10;2.40;;;0.60;;
45764;SDS011;31474;45.332;10.230;2023-04-01T18:26:02;0.93;;;0.40;;
45764;SDS011;31474;45.332;10.230;2023-04-01T18:31:15;3.65;;;0.90;;
45764;SDS011;31474;45.332;10.230;2023-04-01T18:33:48;1.95;;;0.82;;
45764;SDS011;31474;45.332;10.230;2023-04-01T18:36:18;4.88;;;2.30;;
45764;SDS011;31474;45.332;10.230;2023-04-01T18:39:23;1.88;;;1.13;;
45764;SDS011;31474;45.332;10.230;2023-04-01T18:50:55;2.50;;;1.17;;
45764;SDS011;31474;45.332;10.230;2023-04-01T18:56:00;1.33;;;1.23;;
45764;SDS011;31474;45.332;10.230;2023-04-01T18:58:34;5.70;;;1.65;;
45764;SDS011;31474;45.332;10.230;2023-04-01T19:03:45;5.60;;;3.58;;
45764;SDS011;31474;45.332;10.230;2023-04-01T19:06:23;10.98;;;2.60;;
45764;SDS011;31474;45.332;10.230;2023-04-01T19:08:55;10.73;;;3.65;;
45764;SDS011;31474;45.332;10.230;2023-04-01T19:17:32;11.32;;;2.40;;
45764;SDS011;31474;45.332;10.230;2023-04-01T19:20:28;4.22;;;2.33;;
45764;SDS011;31474;45.332;10.230;2023-04-01T19:23:06;2.53;;;2.05;;
45764;SDS011;31474;45.332;10.230;2023-04-01T19:25:55;3.88;;;1.95;;
45764;SDS011;31474;45.332;10.230;2023-04-01T19:31:30;4.22;;;2.53;;
45764;SDS011;31474;45.332;10.230;2023-04-01T19:36:59;7.32;;;4.40;;
45764;SDS011;31474;45.332;10.230;2023-04-01T19:52:59;8.43;;;2.50;;
45764;SDS011;31474;45.332;10.230;2023-04-01T19:55:50;9.95;;;6.55;;
45764;SDS011;31474;45.332;10.230;2023-04-01T20:01:00;7.45;;;3.90;;
45764;SDS011;31474;45.332;10.230;2023-04-01T20:08:47;8.60;;;2.80;;
45764;SDS011;31474;45.332;10.230;2023-04-01T20:24:59;8.00;;;2.70;;
45764;SDS011;31474;45.332;10.230;2023-04-01T20:27:36;7.53;;;2.55;;
45764;SDS011;31474;45.332;10.230;2023-04-01T20:33:01;5.38;;;2.70;;
45764;SDS011;31474;45.332;10.230;2023-04-01T20:35:59;4.78;;;2.58;;
45764;SDS011;31474;45.332;10.230;2023-04-01T20:44:10;6.47;;;2.90;;
45764;SDS011;31474;45.332;10.230;2023-04-01T20:46:59;5.50;;;2.85;;
45764;SDS011;31474;45.332;10.230;2023-04-01T20:49:59;4.07;;;2.75;;
45764;SDS011;31474;45.332;10.230;2023-04-01T20:58:17;9.63;;;4.65;;
45764;SDS011;31474;45.332;10.230;2023-04-01T21:06:40;8.68;;;5.03;;
45764;SDS011;31474;45.332;10.230;2023-04-01T21:12:04;8.27;;;4.32;;
45764;SDS011;31474;45.332;10.230;2023-04-01T21:20:30;5.70;;;3.10;;
45764;SDS011;31474;45.332;10.230;2023-04-01T21:28:25;4.32;;;2.58;;
45764;SDS011;31474;45.332;10.230;2023-04-01T21:41:51;6.60;;;2.90;;
45764;SDS011;31474;45.332;10.230;2023-04-01T21:47:33;7.65;;;4.18;;
45764;SDS011;31474;45.332;10.230;2023-04-01T22:12:15;13.40;;;7.63;;
45764;SDS011;31474;45.332;10.230;2023-04-01T22:23:26;20.13;;;10.45;;
45764;SDS011;31474;45.332;10.230;2023-04-01T22:31:55;23.05;;;12.45;;
45764;SDS011;31474;45.332;10.230;2023-04-01T22:42:46;19.55;;;12.98;;
45764;SDS011;31474;45.332;10.230;2023-04-01T22:50:30;23.65;;;15.30;;
45764;SDS011;31474;45.332;10.230;2023-04-01T22:56:46;25.60;;;15.63;;
45764;SDS011;31474;45.332;10.230;2023-04-01T23:01:59;22.23;;;14.57;;
45764;SDS011;31474;45.332;10.230;2023-04-01T23:04:33;26.83;;;15.68;;
45764;SDS011;31474;45.332;10.230;2023-04-01T23:07:05;23.15;;;13.95;;
45764;SDS011;31474;45.332;10.230;2023-04-01T23:09:49;27.95;;;13.73;;
45764;SDS011;31474;45.332;10.230;2023-04-01T23:12:16;22.52;;;14.93;;
45764;SDS011;31474;45.332;10.230;2023-04-01T23:14:55;33.65;;;17.52;;
45764;SDS011;31474;45.332;10.230;2023-04-01T23:31:32;26.48;;;15.70;;
45764;SDS011;31474;45.332;10.230;2023-04-01T23:36:41;27.17;;;16.95;;
45764;SDS011;31474;45.332;10.230;2023-04-01T23:41:47;31.42;;;18.02;;
45764;SDS011;31474;45.332;10.230;2023-04-01T23:44:13;31.02;;;18.63;;
45764;SDS011;31474;45.332;10.230;2023-04-01T23:46:40;32.78;;;19.33;;
45764;SDS011;31474;45.332;10.230;2023-04-01T23:49:12;31.40;;;18.65;;
45764;SDS011;31474;45.332;10.230;2023-04-01T23:52:02;30.45;;;17.80;;
45764;SDS011;31474;45.332;10.230;2023-04-01T23:54:47;23.13;;;16.73;;
45764;SDS011;31474;45.332;10.230;2023-04-01T23:57:31;27.65;;;17.27;;
